createdAt,value
2022-12-26T00:00:36.634Z,9.13
2022-12-26T00:03:03.400Z,11.10
2022-12-26T00:05:34.652Z,8.73
2022-12-26T00:08:01.239Z,8.77
2022-12-26T00:10:27.874Z,8.83
2022-12-26T00:12:54.488Z,9.43
2022-12-26T00:15:41.560Z,8.17
2022-12-26T00:18:08.194Z,9.97
2022-12-26T00:20:34.768Z,9.13
2022-12-26T00:23:01.376Z,8.40
2022-12-26T00:25:28.131Z,8.27
2022-12-26T00:27:54.740Z,10.63
2022-12-26T00:30:21.384Z,8.90
2022-12-26T00:32:48.281Z,8.93
2022-12-26T00:35:14.864Z,9.43
2022-12-26T00:37:41.451Z,11.43
2022-12-26T00:40:08.793Z,11.90
2022-12-26T00:42:35.403Z,11.90
2022-12-26T00:45:02.056Z,11.87
2022-12-26T00:47:28.706Z,12.47
2022-12-26T00:50:12.297Z,13.27
2022-12-26T00:52:42.097Z,12.97
2022-12-26T00:55:09.176Z,10.70
2022-12-26T00:57:35.797Z,11.77
2022-12-26T01:00:02.467Z,12.27
2022-12-26T01:02:38.368Z,13.10
2022-12-26T01:05:09.082Z,15.30
2022-12-26T01:08:21.492Z,17.03
2022-12-26T01:10:27.563Z,13.47
2022-12-26T01:12:54.373Z,12.73
2022-12-26T01:15:21.054Z,18.60
2022-12-26T01:17:47.719Z,14.03
2022-12-26T01:20:14.358Z,13.10
2022-12-26T01:22:41.025Z,18.53
2022-12-26T01:25:08.157Z,16.87
2022-12-26T01:27:34.814Z,13.17
2022-12-26T01:30:01.486Z,11.43
2022-12-26T01:32:28.271Z,13.47
2022-12-26T01:34:55.517Z,13.43
2022-12-26T01:37:25.692Z,9.67
2022-12-26T01:39:52.893Z,11.93
2022-12-26T01:42:22.744Z,10.53
2022-12-26T01:45:19.405Z,12.17
2022-12-26T01:48:03.736Z,9.07
2022-12-26T01:50:36.487Z,15.40
2022-12-26T01:53:12.604Z,12.30
2022-12-26T01:55:39.745Z,11.80
2022-12-26T01:58:15.478Z,8.43
2022-12-26T02:00:42.693Z,9.80
2022-12-26T02:03:28.413Z,14.20
2022-12-26T02:05:58.830Z,11.17
2022-12-26T02:08:32.439Z,15.83
2022-12-26T02:11:21.391Z,12.53
2022-12-26T02:13:48.257Z,12.50
2022-12-26T02:16:17.769Z,16.87
2022-12-26T02:18:45.109Z,9.83
2022-12-26T02:21:28.917Z,12.47
2022-12-26T02:24:14.064Z,12.17
2022-12-26T02:26:52.663Z,11.27
2022-12-26T02:29:56.778Z,11.33
2022-12-26T02:32:45.308Z,10.67
2022-12-26T02:35:37.902Z,12.00
2022-12-26T02:38:22.516Z,12.57
2022-12-26T02:40:51.921Z,13.40
2022-12-26T02:43:37.193Z,12.30
2022-12-26T02:46:51.359Z,11.33
2022-12-26T02:49:21.815Z,10.97
2022-12-26T02:52:23.198Z,11.33
2022-12-26T02:55:30.369Z,12.37
2022-12-26T02:58:21.796Z,11.27
2022-12-26T03:01:11.775Z,10.17
2022-12-26T03:03:58.614Z,11.30
2022-12-26T03:06:48.201Z,9.47
2022-12-26T03:09:39.513Z,10.97
2022-12-26T03:12:45.234Z,10.97
2022-12-26T03:15:16.103Z,10.27
2022-12-26T03:18:02.518Z,11.20
2022-12-26T03:20:32.242Z,12.70
2022-12-26T03:23:07.844Z,11.63
2022-12-26T03:26:02.040Z,10.07
2022-12-26T03:28:28.859Z,12.00
2022-12-26T03:30:59.362Z,13.17
2022-12-26T03:33:53.593Z,12.27
2022-12-26T03:36:23.151Z,13.17
2022-12-26T03:39:07.690Z,12.23
2022-12-26T03:42:06.601Z,11.80
2022-12-26T03:44:59.022Z,12.80
2022-12-26T03:48:21.495Z,13.03
2022-12-26T03:51:11.599Z,13.60
2022-12-26T03:54:03.946Z,12.50
2022-12-26T03:57:12.532Z,12.03
2022-12-26T04:00:02.718Z,10.73
2022-12-26T04:02:59.604Z,9.53
2022-12-26T04:05:46.206Z,10.37
2022-12-26T04:08:43.926Z,9.93
2022-12-26T04:11:35.429Z,11.83
2022-12-26T04:14:42.128Z,12.37
2022-12-26T04:17:41.757Z,10.60
2022-12-26T04:20:23.253Z,10.20
2022-12-26T04:23:13.848Z,10.27
2022-12-26T04:26:30.979Z,12.20
2022-12-26T04:29:16.341Z,12.70
2022-12-26T04:32:19.699Z,12.27
2022-12-26T04:35:14.348Z,11.67
2022-12-26T04:38:03.033Z,15.10
2022-12-26T04:40:53.037Z,17.73
2022-12-26T04:43:48.490Z,14.50
2022-12-26T04:46:20.930Z,15.30
2022-12-26T04:49:09.624Z,14.13
2022-12-26T04:51:36.615Z,12.73
2022-12-26T04:54:04.493Z,13.43
2022-12-26T04:56:31.260Z,12.47
2022-12-26T04:58:57.980Z,13.63
2022-12-26T05:01:43.601Z,13.57
2022-12-26T05:04:32.923Z,14.13
2022-12-26T05:07:20.772Z,11.03
2022-12-26T05:09:51.695Z,11.20
2022-12-26T05:12:18.343Z,10.87
2022-12-26T05:14:45.064Z,12.03
2022-12-26T05:17:31.849Z,11.30
2022-12-26T05:20:17.299Z,10.73
2022-12-26T05:23:03.878Z,9.83
2022-12-26T05:25:53.132Z,11.03
2022-12-26T05:28:38.988Z,11.20
2022-12-26T05:31:06.085Z,11.87
2022-12-26T05:33:51.451Z,10.80
2022-12-26T05:36:21.246Z,10.87
2022-12-26T05:38:48.937Z,12.07
2022-12-26T05:41:16.069Z,10.97
2022-12-26T05:43:42.723Z,12.60
2022-12-26T05:46:09.485Z,11.93
2022-12-26T05:48:36.275Z,10.70
2022-12-26T05:51:03.999Z,11.30
2022-12-26T05:53:31.508Z,11.73
2022-12-26T05:56:12.908Z,11.70
2022-12-26T05:58:40.610Z,11.83
2022-12-26T06:01:17.193Z,12.43
2022-12-26T06:03:47.662Z,11.80
2022-12-26T06:06:14.698Z,13.50
2022-12-26T06:08:41.410Z,13.37
2022-12-26T06:11:12.617Z,16.13
2022-12-26T06:13:40.611Z,14.27
2022-12-26T06:16:09.336Z,14.30
2022-12-26T06:18:36.349Z,16.27
2022-12-26T06:21:08.095Z,15.03
2022-12-26T06:23:36.031Z,15.10
2022-12-26T06:26:03.635Z,15.33
2022-12-26T06:28:30.906Z,15.67
2022-12-26T06:31:06.372Z,15.50
2022-12-26T06:33:33.191Z,13.73
2022-12-26T06:36:20.275Z,14.00
2022-12-26T06:38:47.143Z,12.90
2022-12-26T06:41:15.852Z,12.97
2022-12-26T06:43:43.186Z,12.47
2022-12-26T06:46:13.451Z,12.43
2022-12-26T06:48:40.235Z,12.47
2022-12-26T06:51:10.707Z,12.33
2022-12-26T06:53:37.803Z,13.63
2022-12-26T06:56:13.197Z,12.80
2022-12-26T06:58:40.648Z,11.83
2022-12-26T07:01:13.283Z,11.70
2022-12-26T07:03:46.790Z,10.97
2022-12-26T07:06:22.248Z,11.70
2022-12-26T07:08:49.319Z,11.83
2022-12-26T07:11:22.032Z,10.97
2022-12-26T07:13:48.874Z,10.20
2022-12-26T07:16:15.552Z,11.40
2022-12-26T07:18:42.682Z,11.73
2022-12-26T07:21:11.608Z,11.93
2022-12-26T07:23:38.319Z,11.23
2022-12-26T07:26:05.834Z,11.77
2022-12-26T07:28:32.881Z,10.90
2022-12-26T07:31:00.389Z,10.70
2022-12-26T07:33:28.206Z,11.13
2022-12-26T07:35:58.702Z,11.30
2022-12-26T07:38:25.344Z,10.73
2022-12-26T07:40:54.329Z,10.60
2022-12-26T07:43:20.964Z,12.33
2022-12-26T07:45:50.711Z,10.77
2022-12-26T07:48:17.704Z,11.93
2022-12-26T07:50:47.149Z,12.40
2022-12-26T07:53:14.625Z,12.40
2022-12-26T07:55:41.410Z,11.40
2022-12-26T07:58:08.026Z,12.23
2022-12-26T08:00:34.672Z,13.03
2022-12-26T08:03:06.785Z,13.73
2022-12-26T08:05:33.736Z,14.03
2022-12-26T08:08:00.372Z,14.00
2022-12-26T08:10:27.034Z,14.73
2022-12-26T08:12:53.677Z,14.20
2022-12-26T08:15:20.271Z,14.83
2022-12-26T08:17:46.861Z,14.53
2022-12-26T08:20:13.610Z,16.77
2022-12-26T08:22:40.204Z,15.73
2022-12-26T08:25:07.614Z,15.83
2022-12-26T08:27:34.237Z,17.33
2022-12-26T08:30:00.867Z,16.33
2022-12-26T08:32:27.870Z,17.37
2022-12-26T08:34:54.456Z,17.07
2022-12-26T08:37:21.858Z,17.50
2022-12-26T08:39:49.095Z,16.57
2022-12-26T08:42:15.729Z,17.73
2022-12-26T08:44:42.325Z,18.23
2022-12-26T08:47:08.914Z,17.50
2022-12-26T08:49:35.589Z,18.43
2022-12-26T08:52:02.237Z,18.23
2022-12-26T08:54:28.863Z,18.53
2022-12-26T08:56:55.479Z,19.13
2022-12-26T08:59:23.203Z,19.13
2022-12-26T09:01:49.933Z,18.00
2022-12-26T09:04:16.699Z,16.10
2022-12-26T09:06:43.689Z,16.67
2022-12-26T09:09:12.544Z,17.07
2022-12-26T09:11:40.376Z,17.83
2022-12-26T09:14:07.528Z,18.47
2022-12-26T09:16:42.964Z,18.23
2022-12-26T09:19:17.514Z,18.43
2022-12-26T09:21:44.637Z,18.03
2022-12-26T09:24:13.948Z,18.53
2022-12-26T09:26:40.688Z,18.70
2022-12-26T09:29:07.448Z,18.07
2022-12-26T09:31:35.566Z,18.77
2022-12-26T09:34:04.809Z,19.20
2022-12-26T09:36:33.724Z,17.57
2022-12-26T09:39:00.478Z,18.63
2022-12-26T09:41:35.916Z,18.43
2022-12-26T09:44:21.550Z,16.00
2022-12-26T09:47:25.702Z,17.10
2022-12-26T09:50:04.856Z,15.70
2022-12-26T09:52:46.281Z,16.83
2022-12-26T09:55:29.441Z,16.43
2022-12-26T09:58:01.058Z,14.87
2022-12-26T10:00:31.692Z,16.43
2022-12-26T10:02:59.339Z,17.27
2022-12-26T10:05:38.401Z,14.40
2022-12-26T10:08:30.689Z,19.53
2022-12-26T10:11:02.556Z,15.27
2022-12-26T10:14:02.266Z,16.93
2022-12-26T10:16:52.911Z,15.77
2022-12-26T10:19:32.829Z,16.10
2022-12-26T10:22:18.311Z,14.53
2022-12-26T10:24:47.885Z,15.67
2022-12-26T10:27:17.505Z,14.30
2022-12-26T10:30:03.177Z,19.23
2022-12-26T10:32:44.130Z,16.03
2022-12-26T10:35:17.143Z,16.37
2022-12-26T10:37:43.821Z,15.17
2022-12-26T10:40:25.152Z,15.93
2022-12-26T10:42:57.049Z,14.03
2022-12-26T10:45:32.431Z,14.30
2022-12-26T10:47:59.083Z,13.47
2022-12-26T10:50:31.931Z,14.03
2022-12-26T10:52:59.957Z,14.87
2022-12-26T10:55:35.213Z,13.40
2022-12-26T10:58:11.179Z,13.93
2022-12-26T11:00:38.024Z,13.53
2022-12-26T11:03:10.613Z,14.33
2022-12-26T11:08:46.531Z,14.93
2022-12-26T11:11:20.628Z,14.40
2022-12-26T11:14:03.250Z,15.63
2022-12-26T11:16:34.966Z,14.37
2022-12-26T11:19:01.944Z,14.67
2022-12-26T11:21:30.776Z,14.03
2022-12-26T11:24:09.567Z,13.10
2022-12-26T11:26:37.656Z,13.80
2022-12-26T11:29:11.930Z,12.77
2022-12-26T11:31:41.298Z,12.47
2022-12-26T11:34:11.644Z,13.30
2022-12-26T11:36:44.805Z,14.10
2022-12-26T11:39:29.783Z,13.30
2022-12-26T11:41:58.072Z,12.67
2022-12-26T11:44:34.512Z,13.20
2022-12-26T11:47:12.828Z,13.53
2022-12-26T11:50:08.161Z,13.80
2022-12-26T11:52:40.986Z,12.23
2022-12-26T11:55:30.530Z,14.43
2022-12-26T11:58:07.235Z,13.10
2022-12-26T12:00:42.826Z,11.77
2022-12-26T12:03:20.150Z,13.33
2022-12-26T12:06:20.608Z,12.97
2022-12-26T12:09:27.756Z,11.57
2022-12-26T12:12:32.458Z,13.20
2022-12-26T12:15:20.305Z,12.17
2022-12-26T12:18:02.714Z,12.77
2022-12-26T12:20:41.528Z,13.67
2022-12-26T12:23:35.484Z,13.23
2022-12-26T12:26:22.335Z,11.43
2022-12-26T12:29:10.556Z,12.27
2022-12-26T12:31:46.957Z,11.90
2022-12-26T12:34:22.659Z,11.17
2022-12-26T12:37:21.472Z,9.90
2022-12-26T12:40:25.684Z,10.63
2022-12-26T12:43:19.533Z,9.73
2022-12-26T12:45:54.255Z,8.70
2022-12-26T12:48:43.344Z,10.70
2022-12-26T12:51:42.136Z,8.77
2022-12-26T12:54:29.830Z,8.50
2022-12-26T12:57:22.554Z,6.57
2022-12-26T13:00:23.962Z,7.67
2022-12-26T13:03:16.209Z,7.80
2022-12-26T13:05:52.853Z,7.73
2022-12-26T13:08:32.756Z,8.27
2022-12-26T13:11:07.130Z,8.83
2022-12-26T13:13:36.678Z,6.20
2022-12-26T13:16:18.197Z,7.83
2022-12-26T13:18:52.243Z,6.60
2022-12-26T13:21:20.511Z,5.10
2022-12-26T13:24:17.877Z,6.73
2022-12-26T13:26:51.357Z,6.07
2022-12-26T13:29:31.119Z,8.27
2022-12-26T13:31:59.163Z,6.30
2022-12-26T13:34:27.166Z,4.27
2022-12-26T13:36:58.933Z,5.10
2022-12-26T13:39:25.486Z,5.77
2022-12-26T13:42:27.292Z,7.40
2022-12-26T13:44:54.309Z,5.60
2022-12-26T13:47:36.029Z,2.27
2022-12-26T13:50:40.164Z,3.57
2022-12-26T13:53:30.222Z,2.67
2022-12-26T13:55:59.640Z,4.33
2022-12-26T13:58:32.001Z,3.70
2022-12-26T14:01:26.097Z,4.60
2022-12-26T14:04:17.015Z,5.03
2022-12-26T14:07:30.568Z,3.40
2022-12-26T14:10:01.322Z,2.40
2022-12-26T14:13:27.690Z,4.00
2022-12-26T14:16:08.352Z,5.40
2022-12-26T14:18:53.806Z,4.43
2022-12-26T14:21:40.934Z,5.63
2022-12-26T14:24:14.051Z,3.77
2022-12-26T14:26:47.251Z,5.17
2022-12-26T14:29:30.295Z,6.73
2022-12-26T14:32:27.789Z,4.87
2022-12-26T14:35:31.046Z,3.77
2022-12-26T14:38:04.697Z,2.10
2022-12-26T14:40:36.507Z,6.23
2022-12-26T14:43:13.808Z,3.60
2022-12-26T14:45:50.937Z,5.57
2022-12-26T14:48:17.649Z,6.90
2022-12-26T14:50:48.898Z,8.57
2022-12-26T14:53:24.480Z,3.30
2022-12-26T14:56:17.985Z,1.60
2022-12-26T14:58:48.783Z,8.87
2022-12-26T15:01:15.703Z,2.40
2022-12-26T15:03:54.212Z,7.33
2022-12-26T15:06:20.880Z,4.33
2022-12-26T15:08:54.738Z,4.27
2022-12-26T15:11:48.944Z,8.37
2022-12-26T15:14:51.725Z,6.17
2022-12-26T15:17:41.386Z,9.70
2022-12-26T15:20:16.673Z,4.10
2022-12-26T15:23:12.611Z,1.40
2022-12-26T15:26:03.403Z,4.03
2022-12-26T15:29:00.784Z,5.83
2022-12-26T15:31:52.024Z,7.67
2022-12-26T15:34:30.565Z,9.27
2022-12-26T15:37:35.556Z,8.03
2022-12-26T15:40:14.960Z,11.87
2022-12-26T15:43:13.664Z,8.53
2022-12-26T15:45:53.437Z,9.87
2022-12-26T15:48:27.924Z,10.33
2022-12-26T15:51:28.967Z,10.87
2022-12-26T15:54:14.647Z,9.67
2022-12-26T15:56:59.973Z,14.10
2022-12-26T15:59:41.475Z,13.93
2022-12-26T16:02:35.507Z,12.40
2022-12-26T16:05:11.413Z,11.13
2022-12-26T16:08:12.096Z,13.67
2022-12-26T16:10:39.100Z,12.17
2022-12-26T16:13:12.769Z,13.63
2022-12-26T16:15:49.357Z,12.33
2022-12-26T16:18:27.159Z,8.53
2022-12-26T16:21:15.283Z,13.40
2022-12-26T16:23:44.323Z,11.30
2022-12-26T16:26:26.111Z,14.73
2022-12-26T16:28:53.890Z,11.67
2022-12-26T16:31:25.175Z,12.90
2022-12-26T16:33:53.620Z,10.67
2022-12-26T16:36:23.638Z,7.83
2022-12-26T16:38:52.314Z,10.77
2022-12-26T16:41:30.737Z,12.43
2022-12-26T16:44:30.445Z,12.27
2022-12-26T16:47:01.751Z,14.37
2022-12-26T16:49:30.455Z,10.97
2022-12-26T16:51:57.176Z,15.33
2022-12-26T16:54:38.267Z,11.87
2022-12-26T16:57:17.606Z,20.23
2022-12-26T16:59:48.691Z,14.20
2022-12-26T17:02:24.756Z,12.70
2022-12-26T17:04:58.595Z,15.43
2022-12-26T17:07:25.982Z,11.93
2022-12-26T17:09:59.394Z,18.43
2022-12-26T17:12:37.141Z,12.77
2022-12-26T17:15:05.764Z,13.43
2022-12-26T17:17:37.646Z,14.03
2022-12-26T17:20:22.617Z,15.47
2022-12-26T17:22:51.101Z,13.93
2022-12-26T17:25:17.651Z,14.00
2022-12-26T17:27:45.323Z,11.53
2022-12-26T17:30:30.805Z,10.90
2022-12-26T17:33:10.224Z,11.60
2022-12-26T17:36:25.305Z,17.33
2022-12-26T17:38:26.951Z,14.80
2022-12-26T17:40:56.099Z,12.40
2022-12-26T17:43:31.000Z,14.53
2022-12-26T17:45:57.900Z,15.53
2022-12-26T17:48:24.561Z,15.60
2022-12-26T17:50:56.681Z,12.73
2022-12-26T17:53:31.823Z,13.10
2022-12-26T17:56:01.945Z,16.60
2022-12-26T17:58:29.881Z,10.87
2022-12-26T18:00:57.288Z,11.17
2022-12-26T18:03:24.080Z,13.73
2022-12-26T18:05:51.343Z,12.43
2022-12-26T18:08:37.423Z,14.03
2022-12-26T18:11:06.816Z,15.83
2022-12-26T18:13:33.641Z,16.63
2022-12-26T18:16:01.096Z,6.73
2022-12-26T18:18:42.601Z,11.33
2022-12-26T18:21:12.084Z,13.67
2022-12-26T18:23:39.676Z,12.87
2022-12-26T18:26:11.315Z,16.83
2022-12-26T18:28:37.975Z,14.47
2022-12-26T18:31:04.656Z,17.43
2022-12-26T18:33:31.342Z,14.40
2022-12-26T18:36:00.828Z,14.63
2022-12-26T18:38:31.051Z,15.57
2022-12-26T18:41:00.934Z,13.80
2022-12-26T18:43:27.607Z,17.40
2022-12-26T18:45:54.338Z,13.50
2022-12-26T18:48:21.009Z,12.40
2022-12-26T18:50:47.696Z,12.53
2022-12-26T18:53:14.299Z,13.60
2022-12-26T18:55:41.216Z,15.97
2022-12-26T18:58:08.008Z,18.73
2022-12-26T19:00:36.028Z,11.63
2022-12-26T19:03:02.773Z,18.83
2022-12-26T19:05:32.712Z,15.27
2022-12-26T19:08:01.185Z,13.90
2022-12-26T19:10:30.657Z,14.73
2022-12-26T19:13:04.734Z,11.17
2022-12-26T19:15:33.423Z,11.87
2022-12-26T19:18:00.779Z,11.60
2022-12-26T19:20:28.077Z,15.27
2022-12-26T19:22:55.542Z,10.80
2022-12-26T19:25:24.388Z,10.97
2022-12-26T19:27:51.662Z,14.10
2022-12-26T19:30:19.373Z,8.70
2022-12-26T19:32:46.481Z,9.97
2022-12-26T19:35:14.202Z,13.27
2022-12-26T19:37:41.486Z,13.37
2022-12-26T19:40:09.504Z,12.87
2022-12-26T19:42:37.340Z,15.17
2022-12-26T19:45:10.043Z,16.00
2022-12-26T19:47:37.002Z,11.20
2022-12-26T19:50:05.667Z,12.63
2022-12-26T19:52:33.139Z,12.77
2022-12-26T19:54:59.739Z,12.73
2022-12-26T19:57:26.472Z,13.07
2022-12-26T19:59:53.111Z,11.37
2022-12-26T20:02:19.898Z,14.20
2022-12-26T20:04:46.682Z,9.83
2022-12-26T20:07:13.299Z,14.57
2022-12-26T20:09:40.152Z,9.17
2022-12-26T20:12:07.045Z,12.80
2022-12-26T20:14:33.701Z,10.97
2022-12-26T20:17:06.189Z,10.23
2022-12-26T20:19:33.884Z,12.63
2022-12-26T20:22:00.585Z,13.47
2022-12-26T20:24:27.172Z,11.83
2022-12-26T20:26:54.063Z,13.40
2022-12-26T20:29:20.767Z,15.40
2022-12-26T20:31:47.546Z,8.90
2022-12-26T20:34:14.302Z,12.37
2022-12-26T20:36:41.685Z,12.10
2022-12-26T20:39:15.435Z,9.37
2022-12-26T20:41:42.130Z,10.67
2022-12-26T20:44:08.769Z,10.30
2022-12-26T20:46:35.972Z,11.00
2022-12-26T20:49:04.626Z,14.60
2022-12-26T20:51:37.454Z,10.97
2022-12-26T20:54:06.342Z,11.97
2022-12-26T20:56:33.263Z,16.13
2022-12-26T20:59:00.025Z,12.57
2022-12-26T21:01:28.323Z,8.27
2022-12-26T21:03:56.618Z,12.73
2022-12-26T21:06:32.490Z,11.50
2022-12-26T21:08:59.416Z,21.17
2022-12-26T21:11:31.436Z,12.00
2022-12-26T21:14:04.328Z,10.20
2022-12-26T21:16:34.144Z,15.00
2022-12-26T21:19:01.729Z,13.37
2022-12-26T21:21:31.359Z,11.67
2022-12-26T21:24:00.478Z,9.20
2022-12-26T21:26:27.981Z,12.67
2022-12-26T21:28:59.789Z,11.33
2022-12-26T21:31:28.066Z,6.37
2022-12-26T21:33:56.363Z,16.30
2022-12-26T21:36:23.613Z,13.70
2022-12-26T21:38:50.340Z,12.40
2022-12-26T21:41:16.944Z,13.07
2022-12-26T21:43:44.020Z,13.87
2022-12-26T21:46:16.175Z,13.67
2022-12-26T21:48:50.063Z,12.80
2022-12-26T21:51:18.660Z,14.23
2022-12-26T21:53:46.325Z,12.27
2022-12-26T21:56:14.945Z,11.43
2022-12-26T21:59:01.022Z,12.73
2022-12-26T22:01:28.731Z,11.13
2022-12-26T22:04:14.340Z,14.37
2022-12-26T22:06:42.054Z,10.50
2022-12-26T22:09:09.651Z,13.23
2022-12-26T22:11:54.879Z,13.63
2022-12-26T22:14:21.920Z,11.03
2022-12-26T22:16:55.202Z,12.30
2022-12-26T22:19:24.413Z,16.70
2022-12-26T22:21:52.162Z,10.00
2022-12-26T22:24:19.102Z,13.80
2022-12-26T22:26:45.737Z,10.70
2022-12-26T22:29:12.313Z,11.37
2022-12-26T22:31:39.176Z,11.47
2022-12-26T22:34:14.079Z,8.70
2022-12-26T22:36:41.621Z,8.03
2022-12-26T22:39:12.371Z,8.27
2022-12-26T22:41:39.332Z,10.87
2022-12-26T22:44:11.754Z,8.93
2022-12-26T22:46:38.408Z,8.20
2022-12-26T22:49:05.142Z,6.73
2022-12-26T22:51:31.815Z,10.83
2022-12-26T22:54:01.035Z,9.47
2022-12-26T22:56:28.941Z,4.50
2022-12-26T22:58:57.287Z,7.50
2022-12-26T23:01:24.124Z,9.53
2022-12-26T23:03:50.865Z,11.23
2022-12-26T23:06:44.019Z,9.93
2022-12-26T23:09:16.545Z,11.37
2022-12-26T23:12:03.464Z,8.27
2022-12-26T23:14:30.153Z,7.33
2022-12-26T23:17:00.076Z,11.20
2022-12-26T23:20:06.465Z,12.17
2022-12-26T23:22:33.362Z,11.00
2022-12-26T23:25:02.176Z,7.53
2022-12-26T23:27:47.286Z,16.40
2022-12-26T23:30:20.201Z,4.90
2022-12-26T23:32:52.444Z,8.90
2022-12-26T23:35:20.945Z,9.33
2022-12-26T23:37:47.566Z,8.90
2022-12-26T23:40:16.055Z,5.30
2022-12-26T23:42:43.155Z,9.77
2022-12-26T23:45:11.509Z,9.07
2022-12-26T23:47:39.652Z,8.20
2022-12-26T23:50:07.863Z,8.40
2022-12-26T23:52:34.847Z,8.77
2022-12-26T23:55:01.535Z,8.10
2022-12-26T23:57:28.264Z,8.27
2022-12-26T23:59:54.887Z,9.23
